Weather observations for the past three days for
Covington Municipal Airport
Metric (Imperial)
Date Time (edt) Wind (kph) Vis. (km) Weather Sky Cond. Temperature (ºC) Relative Humidity Wind Chill (°C) Heat Index (°C) Pressure Precipitation (cm)
Air Dwpt 6 hour altimeter (cm) sea level (mb) 1 hr 3 hr 6 hr
Max. Min.
05 01:15 Calm 16.09 Fair CLR 16 7 55% 76.15 0.0
05 00:55 Calm 16.09 Fair CLR 16 8 59% 76.15 0.0
05 00:35 Calm 16.09 Fair CLR 16 8 59% 76.15 0.0
05 00:15 Calm 16.09 Fair CLR 17 8 56% 76.15 0.0
04 23:55 Calm 16.09 Fair CLR 17 8 56% 76.15 0.0
04 23:35 Calm 16.09 Fair CLR 17 8 56% 76.17 0.0
04 23:15 Calm 16.09 Fair CLR 18 8 52% 76.17 0.0
04 22:55 Calm 16.09 Fair CLR 18 8 52% 76.17 0.0
04 22:35 Calm 16.09 Fair CLR 17 9 60% 76.15 0.0
04 22:15 Calm 16.09 Fair CLR 18 9 56% 76.15 0.0
04 21:55 Calm 16.09 Fair CLR 17 10 64% 76.15 0.0
04 21:35 Calm 16.09 Fair CLR 17 10 64% 76.12 0.0
04 21:15 Calm 16.09 Fair CLR 18 10 60% 76.12 0.0
04 20:55 Calm 16.09 Fair CLR 19 11 60% 76.1 0.0
04 20:35 Calm 16.09 Fair CLR 21 10 50% 76.1 0.0
04 20:15 Calm 16.09 Fair CLR 22 9 44% 76.07 0.0
04 19:55 Calm 16.09 Fair CLR 23 9 41% 76.07 0.0
04 19:35 Calm 16.09 Fair CLR 24 8 36% 25 76.07 0.0
04 19:15 Calm 16.09 Fair CLR 24 9 39% 25 76.1 0.0
04 18:55 Calm 16.09 Fair CLR 24 9 39% 25 76.1 0.0
04 18:35 Calm 16.09 Fair CLR 24 9 39% 25 76.1 0.0
04 18:15 Calm 16.09 Fair CLR 24 8 36% 25 76.1 0.0
04 17:55 S 9 G 19 16.09 Fair CLR 25 8 34% 26 76.07 0.0
04 17:35 Calm 16.09 Fair CLR 25 7 32% 25 76.07 0.0
04 17:15 Vrbl 7 16.09 Fair CLR 26 8 32% 26 76.07 0.0
04 16:55 Calm 16.09 Fair CLR 26 8 32% 26 76.1 0.0
04 16:35 Calm 16.09 Fair CLR 25 8 34% 26 76.1 0.0
04 16:15 Calm 16.09 Fair CLR 26 8 32% 26 76.1 0.0
04 15:55 Vrbl 6 16.09 Fair CLR 25 7 32% 25 76.12 0.0
04 15:35 Vrbl 7 16.09 Fair CLR 26 8 32% 26 76.15 0.0
04 15:15 Vrbl 6 16.09 Fair CLR 25 7 32% 25 76.15 0.0
04 14:55 Calm 16.09 Fair CLR 25 8 34% 26 76.17 0.0
04 14:35 Calm 16.09 Fair CLR 25 7 32% 25 76.2 0.0
04 14:15 SW 9 16.09 Fair CLR 24 8 36% 25 76.23 0.0
04 13:55 Calm 16.09 Fair CLR 24 8 36% 25 76.25 0.0
04 13:35 Calm 16.09 Fair CLR 24 8 36% 25 76.25 0.0
04 13:15 NW 7 16.09 Fair CLR 23 8 38% 76.28 0.0
04 12:55 Vrbl 6 G 19 16.09 Fair CLR 23 8 38% 76.28 0.0
04 12:35 Calm 16.09 Fair CLR 22 7 38% 76.3 0.0
04 12:15 Vrbl 7 16.09 Fair CLR 22 8 41% 76.33 0.0
04 11:55 Calm 16.09 Fair CLR 22 7 38% 76.35 0.0
04 11:35 Calm 16.09 Fair CLR 21 7 40% 76.35 0.0
04 11:15 Vrbl 7 16.09 Fair CLR 21 7 40% 76.38 0.0
04 10:55 Calm 16.09 Fair CLR 21 7 40% 76.38 0.0
04 10:35 Calm 16.09 Fair CLR 20 8 46% 76.38 0.0
04 10:15 Calm 16.09 Fair CLR 19 8 49% 76.38 0.0
04 09:55 Calm 16.09 Fair CLR 18 8 52% 76.38 0.0
04 09:35 Calm 16.09 Fair CLR 17 9 60% 76.38 0.0
04 09:15 Calm 16.09 Fair CLR 15 8 63% 76.38 0.0
04 08:55 Calm 16.09 Fair CLR 14 9 72% 76.38 0.0
04 08:35 Calm 16.09 Fair CLR 13 9 77% 76.38 0.0
04 07:55 Calm 16.09 Fair CLR 9 8 94% 76.35 0.0
04 07:35 Calm 16.09 Fair CLR 8 8 100% 76.35 0.0
04 07:15 Calm 16.09 Fair CLR 7 6 93% 76.35 0.0
04 06:55 Calm 16.09 Fair CLR 7 6 93% 76.33 0.0
04 06:35 Calm 16.09 Fair CLR 7 6 93% 76.33 0.0
04 06:15 Calm 16.09 Fair CLR 7 6 93% 76.33 0.0
04 05:55 Calm 16.09 Fair CLR 7 6 93% 76.33 0.0
04 05:35 Calm 16.09 Fair CLR 6 6 100% 76.33 0.0
04 05:15 Calm 16.09 Fair CLR 7 7 100% 76.33 0.0
04 04:55 Calm 16.09 Fair CLR 7 7 100% 76.33 0.0
04 04:35 Calm 16.09 Fair CLR 7 6 93% 76.33 0.0
04 04:15 Calm 16.09 Fair CLR 8 6 87% 76.33 0.0
04 03:55 Calm 16.09 Fair CLR 8 6 87% 76.35 0.0
04 03:35 Calm 16.09 Fair CLR 9 7 87% 76.35 0.0
04 03:15 Calm 16.09 A Few Clouds FEW002 8 7 93% 76.35 0.0
04 02:55 Calm 16.09 Fair CLR 8 7 93% 76.35 0.0
04 02:35 Calm 16.09 Fair CLR 9 7 87% 76.35 0.0
04 02:15 Calm 16.09 Fair CLR 8 7 93% 76.33 0.0
04 01:55 Calm 16.09 Fair CLR 9 7 87% 76.35 0.0
04 01:35 Calm 16.09 Fair CLR 9 7 87% 76.38 0.0
04 01:15 Calm 16.09 Fair CLR 9 7 87% 76.38 0.0
04 00:55 Calm 16.09 Fair CLR 10 7 82% 76.38 0.0
04 00:35 Calm 16.09 Fair CLR 10 7 82% 76.38 0.0
04 00:15 Calm 16.09 Fair CLR 10 7 82% 76.38 0.0
03 23:55 Calm 4.02 Fair with Haze CLR 10 6 76% 76.38 0.0
03 23:35 Calm 16.09 Fair CLR 11 7 77% 76.38 0.0
03 23:15 Calm 16.09 Fair CLR 11 6 72% 76.38 0.0
03 22:55 Calm 16.09 Fair CLR 12 6 67% 76.38 0.0
03 22:35 Calm 16.09 Fair CLR 12 6 67% 76.35 0.0
03 22:15 Calm 16.09 Fair CLR 13 5 59% 76.33 0.0
03 21:55 Calm 16.09 Fair CLR 13 5 59% 76.33 0.0
03 21:35 Calm 16.09 Fair CLR 14 6 59% 76.3 0.0
03 21:15 Calm 16.09 Fair CLR 14 6 59% 76.28 0.0
03 20:55 Calm 16.09 Fair CLR 15 6 55% 76.28 0.0
03 20:35 Calm 16.09 Fair CLR 16 6 52% 76.25 0.0
03 20:15 Calm 16.09 Fair CLR 18 6 46% 76.25 0.0
03 19:55 W 6 16.09 Fair CLR 20 3 33% 76.25 0.0
03 19:35 Calm 16.09 Fair CLR 21 3 31% 76.25 0.0
03 19:15 Calm 16.09 Fair CLR 21 2 29% 76.25 0.0
03 18:55 Vrbl 9 16.09 Fair CLR 22 3 29% 76.25 0.0
03 18:35 W 9 G 20 16.09 Fair CLR 22 3 29% 76.25 0.0
03 18:15 Vrbl 6 16.09 Fair CLR 22 2 27% 76.25 0.0
03 17:55 NW 9 G 24 16.09 Fair CLR 22 2 27% 76.25 0.0
03 17:35 Vrbl 7 G 19 16.09 Fair CLR 22 4 31% 76.28 0.0
03 17:15 W 17 16.09 Fair CLR 22 4 31% 76.28 0.0
03 16:55 Vrbl 11 G 22 16.09 Fair CLR 22 4 31% 76.28 0.0
03 16:35 Vrbl 11 G 22 16.09 Fair CLR 22 4 31% 76.3 0.0
03 16:15 Calm 16.09 Fair CLR 22 4 31% 76.33 0.0
03 15:55 Vrbl 9 G 24 16.09 Fair CLR 22 4 31% 76.33 0.0
03 15:35 Calm 16.09 Fair CLR 21 4 33% 76.35 0.0
03 15:15 Vrbl 7 G 20 16.09 Fair CLR 21 3 31% 76.4 0.0
03 14:55 SW 9 G 19 16.09 Fair CLR 21 4 33% 76.43 0.0
03 14:35 NW 17 G 41 16.09 Fair CLR 21 4 33% 76.45 0.0
03 14:15 Vrbl 7 G 19 16.09 Fair CLR 20 5 38% 76.45 0.0
03 13:55 Vrbl 6 G 19 16.09 Fair CLR 20 4 35% 76.48 0.0
03 13:35 Vrbl 9 16.09 Fair CLR 19 4 37% 76.48 0.0
03 13:15 Calm 16.09 Fair CLR 19 4 37% 76.48 0.0
03 12:55 N 15 16.09 Fair CLR 19 4 37% 76.5 0.0
03 12:35 Vrbl 7 G 20 16.09 Fair CLR 19 4 37% 76.53 0.0
03 12:15 Vrbl 11 16.09 Fair CLR 18 4 40% 76.53 0.0
03 11:55 Calm 16.09 Fair CLR 18 4 40% 76.56 0.0
03 11:35 Calm 16.09 Fair CLR 18 2 34% 76.56 0.0
03 11:15 Vrbl 9 16.09 Fair CLR 18 4 40% 76.56 0.0
03 10:55 N 9 16.09 Fair CLR 17 5 45% 76.56 0.0
03 10:35 NW 11 16.09 Fair CLR 17 6 49% 76.56 0.0
03 10:15 Calm 16.09 Fair CLR 16 6 52% 76.53 0.0
03 09:55 NW 11 16.09 Fair CLR 15 7 59% 76.53 0.0
03 09:35 Vrbl 7 16.09 Fair CLR 14 8 67% 76.53 0.0
03 09:15 NW 11 16.09 Fair CLR 13 7 67% 76.53 0.0
03 08:55 NW 9 16.09 Fair CLR 12 7 72% 76.5 0.0
03 08:35 NW 11 16.09 Fair CLR 11 7 77% 76.5 0.0
03 08:15 NW 13 16.09 Fair CLR 10 6 76% 8 76.5 0.0
03 07:55 NW 9 16.09 Fair CLR 9 6 82% 8 76.48 0.0
03 07:35 Calm 16.09 Fair CLR 7 6 93% 76.48 0.0
03 07:15 Calm 16.09 Fair CLR 7 5 87% 76.45 0.0
03 06:35 Calm 16.09 Fair CLR 7 5 87% 76.4 0.0
03 06:15 NW 9 16.09 Fair CLR 7 5 87% 5 76.38 0.0
03 05:55 NW 11 16.09 Fair CLR 7 5 87% 5 76.38 0.0
03 05:35 NW 9 16.09 Fair CLR 7 5 87% 5 76.38 0.0
03 05:15 NW 7 16.09 Fair CLR 8 5 82% 7 76.38 0.0
03 04:55 NW 7 16.09 Fair CLR 8 5 82% 7 76.38 0.0
03 04:35 NW 11 16.09 Fair CLR 8 5 82% 6 76.35 0.0
03 04:15 NW 9 16.09 Fair CLR 8 5 82% 7 76.35 0.0
03 03:55 NW 7 16.09 Fair CLR 8 5 82% 7 76.33 0.0
03 03:35 NW 9 16.09 Fair CLR 8 5 82% 7 76.33 0.0
03 03:15 NW 9 16.09 Fair CLR 9 5 76% 8 76.3 0.0
03 02:55 NW 11 16.09 Fair CLR 9 5 76% 8 76.28 0.0
03 02:35 NW 11 16.09 Fair CLR 9 5 76% 8 76.3 0.0
03 02:15 NW 11 16.09 Fair CLR 8 5 82% 6 76.28 0.0
03 01:55 NW 7 16.09 Fair CLR 8 5 82% 7 76.28 0.0
03 01:35 NW 6 16.09 Fair CLR 9 5 76% 76.3 0.0
03 01:15 Calm 16.09 Fair CLR 10 5 71% 76.28 0.0
03 00:55 NW 7 16.09 Fair CLR 9 5 76% 8 76.28 0.0
03 00:35 NW 6 16.09 Fair CLR 9 5 76% 76.28 0.0
03 00:15 Calm 16.09 Fair CLR 10 4 67% 76.25 0.0
02 23:55 NW 6 16.09 Fair CLR 10 4 67% 76.25 0.0
02 23:35 NW 6 16.09 Fair CLR 11 4 62% 76.25 0.0
02 23:15 Calm 16.09 Fair CLR 11 4 62% 76.25 0.0
02 22:55 Calm 16.09 Fair CLR 12 4 58% 76.23 0.0
02 22:35 NW 7 16.09 Fair CLR 12 4 58% 76.2 0.0
02 22:15 Calm 16.09 Fair CLR 12 3 54% 76.17 0.0
02 21:55 W 6 16.09 Fair CLR 13 3 51% 76.15 0.0
02 21:35 NW 6 16.09 Fair CLR 14 2 44% 76.15 0.0
02 21:15 NW 6 16.09 Fair CLR 15 2 42% 76.12 0.0
02 20:55 NW 13 16.09 Fair CLR 15 1 39% 76.1 0.0
02 20:35 NW 15 16.09 Fair CLR 16 1 36% 76.05 0.0
02 20:15 NW 17 G 26 16.09 Fair CLR 17 1 34% 76.02 0.0
02 19:55 NW 13 G 22 16.09 Fair CLR 18 2 34% 76 0.0
02 19:35 NW 24 G 35 16.09 Fair CLR 19 2 32% 75.97 0.0
02 19:15 NW 20 G 33 16.09 Fair CLR 19 3 35% 75.95 0.0
02 18:55 NW 24 G 37 16.09 Fair CLR 20 3 33% 75.92 0.0
02 18:35 W 24 G 33 16.09 Fair CLR 21 4 33% 75.9 0.0
02 18:15 W 22 16.09 Fair CLR 21 5 35% 75.9 0.0
02 17:55 W 22 G 31 16.09 Fair CLR 21 5 35% 75.87 0.0
02 17:35 NW 26 G 35 16.09 Fair CLR 22 6 36% 75.84 0.0
02 17:15 W 19 G 33 16.09 A Few Clouds FEW065 22 6 36% 75.82 0.0
02 16:55 W 15 G 26 16.09 Partly Cloudy FEW065 SCT080 22 8 41% 75.82 0.0
02 16:35 NW 13 G 26 16.09 Partly Cloudy FEW060 SCT080 21 9 46% 75.82 0.0
02 16:15 NW 19 16.09 Partly Cloudy FEW055 FEW075 SCT085 23 10 44% 75.82 0.0
02 15:55 W 17 G 30 16.09 Partly Cloudy FEW055 SCT080 23 10 44% 75.84 0.0
02 15:35 W 17 G 26 16.09 Mostly Cloudy SCT055 BKN070 21 10 50% 75.84 0.0
02 15:15 Vrbl 9 G 20 16.09 Partly Cloudy FEW055 SCT065 22 9 44% 75.84 0.0
02 14:55 NW 13 16.09 Mostly Cloudy SCT050 BKN065 BKN075 21 9 46% 75.87 0.0
02 14:35 Vrbl 11 16.09 Mostly Cloudy BKN049 BKN070 22 11 50% 75.87 0.0
02 14:15 W 13 16.09 A Few Clouds FEW045 FEW060 21 11 53% 75.87 0.0
02 13:55 Vrbl 9 16.09 Partly Cloudy FEW043 SCT060 21 11 53% 75.9 0.0 0.03
02 13:35 Vrbl 6 16.09 Fair CLR 20 12 60% 75.9 0.0
02 13:15 Vrbl 6 G 19 16.09 A Few Clouds FEW110 20 11 56% 75.92 0.0
02 12:55 Vrbl 9 G 20 16.09 Partly Cloudy SCT110 19 12 64% 75.92 0.0
02 12:35 N 13 16.09 Mostly Cloudy FEW027 BKN110 19 12 64% 75.95 0.0
02 12:15 Vrbl 7 G 19 16.09 Mostly Cloudy SCT026 SCT030 BKN110 19 13 68% 75.95 0.0
02 11:55 N 13 16.09 Mostly Cloudy FEW024 SCT032 BKN110 19 13 68% 75.97 0.0
02 11:35 Calm 16.09 Mostly Cloudy BKN100 18 14 78% 75.95 0.0
02 11:15 Vrbl 9 16.09 Mostly Cloudy BKN095 BKN120 16 14 88% 75.95 0.0
02 10:55 NW 11 16.09 Overcast OVC090 16 13 83% 75.95 0.0
02 10:35 NW 13 16.09 Overcast OVC100 15 14 94% 75.95 0.0
02 10:15 NW 7 16.09 Overcast OVC090 15 14 94% 75.92 0.0
02 09:55 Calm 16.09 Overcast OVC090 15 13 88% 75.9 0.0
02 09:35 Calm 16.09 Partly Cloudy SCT095 14 13 94% 75.87 0.0
02 09:15 Calm 16.09 Light Rain FEW065 14 14 100% 75.95 0.0
02 08:55 W 9 16.09 Light Rain SCT065 14 14 100% 75.97 0.0
02 08:35 W 6 16.09 Partly Cloudy SCT100 14 14 100% 75.9 0.0
02 08:15 Calm 16.09 Mostly Cloudy BKN100 14 14 100% 75.9 0.0
02 07:55 Calm 16.09 Fair CLR 14 14 100% 75.87 0.0
02 07:35 Calm 16.09 A Few Clouds FEW075 14 14 100% 75.87 0.0
02 07:15 Calm 16.09 Light Drizzle FEW045 SCT070 BKN080 14 14 100% 75.92 0.0
02 06:55 Calm 12.87 Overcast FEW002 SCT048 OVC075 14 14 100% 75.95 0.0
02 06:35 Calm 11.27 Overcast SCT002 BKN045 OVC075 14 14 100% 75.84 0.0
02 06:15 Calm 14.48 Overcast SCT003 BKN060 OVC070 14 14 100% 75.82 0.0
02 05:55 Calm 12.87 Light Rain FEW044 BKN060 OVC075 14 14 100% 75.82 0.0 0.03
02 05:35 W 6 14.48 Overcast FEW060 BKN075 OVC090 14 14 100% 75.84 0.0
02 05:15 Calm 11.27 Light Rain FEW003 SCT037 BKN060 14 14 100% 75.84 0.0
02 04:55 Calm 14.48 Overcast SCT003 BKN070 OVC095 14 14 100% 75.84 0.0 0.03
02 04:35 Calm 14.48 Overcast FEW044 SCT075 OVC095 14 14 100% 75.87 0.0
02 04:15 Calm 11.27 Light Rain FEW041 SCT060 BKN075 14 14 100% 75.87 0.0
02 03:55 Calm 16.09 Overcast FEW038 SCT055 OVC100 14 14 100% 75.87 0.0 0.03
02 03:15 Calm 8.05 Light Rain Fog/Mist SCT060 OVC070 14 14 100% 75.9 0.0
02 02:55 Calm 14.48 Light Rain FEW047 FEW055 OVC070 14 14 100% 75.92 0.0 0.03
02 02:35 Calm 14.48 Light Rain FEW036 SCT049 OVC070 15 14 94% 75.92 0.0
02 02:15 Calm 16.09 Light Rain FEW036 SCT047 OVC070 15 14 94% 75.92 0.0
02 01:55 Calm 16.09 Mostly Cloudy FEW031 SCT038 BKN046 15 13 88% 75.92 0.0
02 01:35 Calm 16.09 Overcast FEW047 OVC070 15 13 88% 75.92 0.0
Date Time (edt) Wind (kph) Vis. (km) Weather Sky Cond. Air Dwpt Max. Min. Relative Humidity Wind Chill (°C) Heat Index (°C) altimeter (cm) sea level (mb) 1 hr 3 hr 6 hr
6 hour
Temperature (ºC) Pressure Precipitation (cm)